sensor_id;sensor_type;location;lat;lon;timestamp;temperature;humidity
46730;DHT22;32476;50.002;11.854;2023-03-01T00:01:28;-4.20;99.90
46730;DHT22;32476;50.002;11.854;2023-03-01T00:03:56;-4.20;99.90
46730;DHT22;32476;50.002;11.854;2023-03-01T00:06:25;-4.30;99.90
46730;DHT22;32476;50.002;11.854;2023-03-01T00:08:52;-4.30;99.90
46730;DHT22;32476;50.002;11.854;2023-03-01T00:11:23;-4.20;99.90
46730;DHT22;32476;50.002;11.854;2023-03-01T00:13:55;-4.20;99.90
46730;DHT22;32476;50.002;11.854;2023-03-01T00:16:30;-4.20;99.90
46730;DHT22;32476;50.002;11.854;2023-03-01T00:19:00;-4.30;99.90
46730;DHT22;32476;50.002;11.854;2023-03-01T00:21:27;-4.30;99.90
46730;DHT22;32476;50.002;11.854;2023-03-01T00:23:54;-4.40;99.90
46730;DHT22;32476;50.002;11.854;2023-03-01T00:26:23;-4.40;99.90
46730;DHT22;32476;50.002;11.854;2023-03-01T00:28:50;-4.50;99.90
46730;DHT22;32476;50.002;11.854;2023-03-01T00:31:19;-4.50;99.90
46730;DHT22;32476;50.002;11.854;2023-03-01T00:33:52;-4.50;99.90
46730;DHT22;32476;50.002;11.854;2023-03-01T00:36:26;-4.60;99.90
46730;DHT22;32476;50.002;11.854;2023-03-01T00:38:56;-4.60;99.90
46730;DHT22;32476;50.002;11.854;2023-03-01T00:41:22;-4.50;99.90
46730;DHT22;32476;50.002;11.854;2023-03-01T00:43:49;-4.50;99.90
46730;DHT22;32476;50.002;11.854;2023-03-01T00:46:19;-4.50;99.90
46730;DHT22;32476;50.002;11.854;2023-03-01T00:48:47;-4.60;99.90
46730;DHT22;32476;50.002;11.854;2023-03-01T00:51:19;-4.60;99.90
46730;DHT22;32476;50.002;11.854;2023-03-01T00:53:55;-4.50;99.90
46730;DHT22;32476;50.002;11.854;2023-03-01T00:56:24;-4.50;99.90
46730;DHT22;32476;50.002;11.854;2023-03-01T00:58:51;-4.50;99.90
46730;DHT22;32476;50.002;11.854;2023-03-01T01:01:20;-4.50;99.90
46730;DHT22;32476;50.002;11.854;2023-03-01T01:04:11;-4.40;99.90
46730;DHT22;32476;50.002;11.854;2023-03-01T01:06:45;-4.40;99.90
46730;DHT22;32476;50.002;11.854;2023-03-01T01:09:14;-4.50;99.90
46730;DHT22;32476;50.002;11.854;2023-03-01T01:11:50;-4.40;99.90
46730;DHT22;32476;50.002;11.854;2023-03-01T01:14:17;-4.30;99.90
46730;DHT22;32476;50.002;11.854;2023-03-01T01:16:46;-4.40;99.90
46730;DHT22;32476;50.002;11.854;2023-03-01T01:19:12;-4.40;99.90
46730;DHT22;32476;50.002;11.854;2023-03-01T01:21:39;-4.40;99.90
46730;DHT22;32476;50.002;11.854;2023-03-01T01:24:07;-4.40;99.90
46730;DHT22;32476;50.002;11.854;2023-03-01T01:26:34;-4.40;99.90
46730;DHT22;32476;50.002;11.854;2023-03-01T01:29:02;-4.40;99.90
46730;DHT22;32476;50.002;11.854;2023-03-01T01:31:31;-4.40;99.90
46730;DHT22;32476;50.002;11.854;2023-03-01T01:33:59;-4.40;99.90
46730;DHT22;32476;50.002;11.854;2023-03-01T01:36:27;-4.40;99.90
46730;DHT22;32476;50.002;11.854;2023-03-01T01:38:55;-4.40;99.90
46730;DHT22;32476;50.002;11.854;2023-03-01T01:41:22;-4.40;99.90
46730;DHT22;32476;50.002;11.854;2023-03-01T01:46:54;-4.40;99.90
46730;DHT22;32476;50.002;11.854;2023-03-01T01:49:41;-4.40;99.90
46730;DHT22;32476;50.002;11.854;2023-03-01T01:52:17;-4.40;99.90
46730;DHT22;32476;50.002;11.854;2023-03-01T01:54:56;-4.40;99.90
46730;DHT22;32476;50.002;11.854;2023-03-01T01:57:46;-4.30;99.90
46730;DHT22;32476;50.002;11.854;2023-03-01T02:00:20;-4.40;99.90
46730;DHT22;32476;50.002;11.854;2023-03-01T02:02:57;-4.40;99.90
46730;DHT22;32476;50.002;11.854;2023-03-01T02:05:51;-4.30;99.90
46730;DHT22;32476;50.002;11.854;2023-03-01T02:08:23;-4.30;99.90
46730;DHT22;32476;50.002;11.854;2023-03-01T02:10:51;-4.30;99.90
46730;DHT22;32476;50.002;11.854;2023-03-01T02:13:18;-4.40;99.90
46730;DHT22;32476;50.002;11.854;2023-03-01T02:15:46;-4.40;99.90
46730;DHT22;32476;50.002;11.854;2023-03-01T02:18:14;-4.40;99.90
46730;DHT22;32476;50.002;11.854;2023-03-01T02:23:33;-4.50;99.90
46730;DHT22;32476;50.002;11.854;2023-03-01T02:26:29;-4.50;99.90
46730;DHT22;32476;50.002;11.854;2023-03-01T02:29:04;-4.50;99.90
46730;DHT22;32476;50.002;11.854;2023-03-01T02:31:31;-4.50;99.90
46730;DHT22;32476;50.002;11.854;2023-03-01T02:34:21;-4.50;99.90
46730;DHT22;32476;50.002;11.854;2023-03-01T02:36:56;-4.60;99.90
46730;DHT22;32476;50.002;11.854;2023-03-01T02:39:33;-4.60;99.90
46730;DHT22;32476;50.002;11.854;2023-03-01T02:42:03;-4.60;99.90
46730;DHT22;32476;50.002;11.854;2023-03-01T02:44:31;-4.50;99.90
46730;DHT22;32476;50.002;11.854;2023-03-01T02:47:01;-4.50;99.90
46730;DHT22;32476;50.002;11.854;2023-03-01T02:49:33;-4.60;99.90
46730;DHT22;32476;50.002;11.854;2023-03-01T02:55:16;-4.60;99.90
46730;DHT22;32476;50.002;11.854;2023-03-01T02:57:45;-4.60;99.90
46730;DHT22;32476;50.002;11.854;2023-03-01T03:00:21;-4.60;99.90
46730;DHT22;32476;50.002;11.854;2023-03-01T03:02:53;-4.50;99.90
46730;DHT22;32476;50.002;11.854;2023-03-01T03:05:22;-4.60;99.90
46730;DHT22;32476;50.002;11.854;2023-03-01T03:07:50;-4.50;99.90
46730;DHT22;32476;50.002;11.854;2023-03-01T03:10:24;-4.50;99.90
46730;DHT22;32476;50.002;11.854;2023-03-01T03:12:56;-4.50;99.90
46730;DHT22;32476;50.002;11.854;2023-03-01T03:15:26;-4.50;99.90
46730;DHT22;32476;50.002;11.854;2023-03-01T03:17:53;-4.50;99.90
46730;DHT22;32476;50.002;11.854;2023-03-01T03:20:21;-4.60;99.90
46730;DHT22;32476;50.002;11.854;2023-03-01T03:22:53;-4.60;99.90
46730;DHT22;32476;50.002;11.854;2023-03-01T03:25:20;-4.60;99.90
46730;DHT22;32476;50.002;11.854;2023-03-01T03:27:48;-4.60;99.90
46730;DHT22;32476;50.002;11.854;2023-03-01T03:30:18;-4.60;99.90
46730;DHT22;32476;50.002;11.854;2023-03-01T03:32:46;-4.70;99.90
46730;DHT22;32476;50.002;11.854;2023-03-01T03:35:24;-4.70;99.90
46730;DHT22;32476;50.002;11.854;2023-03-01T03:37:51;-4.70;99.90
46730;DHT22;32476;50.002;11.854;2023-03-01T03:40:38;-4.60;99.90
46730;DHT22;32476;50.002;11.854;2023-03-01T03:43:07;-4.70;99.90
46730;DHT22;32476;50.002;11.854;2023-03-01T03:45:36;-4.70;99.90
46730;DHT22;32476;50.002;11.854;2023-03-01T03:48:04;-4.60;99.90
46730;DHT22;32476;50.002;11.854;2023-03-01T03:50:31;-4.60;99.90
46730;DHT22;32476;50.002;11.854;2023-03-01T03:53:05;-4.70;99.90
46730;DHT22;32476;50.002;11.854;2023-03-01T03:55:33;-4.60;99.90
46730;DHT22;32476;50.002;11.854;2023-03-01T03:58:02;-4.70;99.90
46730;DHT22;32476;50.002;11.854;2023-03-01T04:00:45;-4.70;99.90
46730;DHT22;32476;50.002;11.854;2023-03-01T04:03:15;-4.70;99.90
46730;DHT22;32476;50.002;11.854;2023-03-01T04:05:42;-4.70;99.90
46730;DHT22;32476;50.002;11.854;2023-03-01T04:08:09;-4.70;99.90
46730;DHT22;32476;50.002;11.854;2023-03-01T04:10:41;-4.70;99.90
46730;DHT22;32476;50.002;11.854;2023-03-01T04:13:11;-4.80;99.90
46730;DHT22;32476;50.002;11.854;2023-03-01T04:15:40;-4.80;99.90
46730;DHT22;32476;50.002;11.854;2023-03-01T04:18:12;-4.80;99.90
46730;DHT22;32476;50.002;11.854;2023-03-01T04:20:40;-4.90;99.90
46730;DHT22;32476;50.002;11.854;2023-03-01T04:23:11;-4.80;99.90
46730;DHT22;32476;50.002;11.854;2023-03-01T04:25:51;-4.80;99.90
46730;DHT22;32476;50.002;11.854;2023-03-01T04:28:32;-4.80;99.90
46730;DHT22;32476;50.002;11.854;2023-03-01T04:31:07;-4.80;99.90
46730;DHT22;32476;50.002;11.854;2023-03-01T04:33:48;-4.80;99.90
46730;DHT22;32476;50.002;11.854;2023-03-01T04:36:23;-4.80;99.90
46730;DHT22;32476;50.002;11.854;2023-03-01T04:38:50;-4.80;99.90
46730;DHT22;32476;50.002;11.854;2023-03-01T04:41:20;-4.80;99.90
46730;DHT22;32476;50.002;11.854;2023-03-01T04:43:48;-4.70;99.90
46730;DHT22;32476;50.002;11.854;2023-03-01T04:46:16;-4.80;99.90
46730;DHT22;32476;50.002;11.854;2023-03-01T04:48:45;-4.80;99.90
46730;DHT22;32476;50.002;11.854;2023-03-01T04:51:14;-4.90;99.90
46730;DHT22;32476;50.002;11.854;2023-03-01T04:53:41;-4.90;99.90
46730;DHT22;32476;50.002;11.854;2023-03-01T04:56:07;-4.90;99.90
46730;DHT22;32476;50.002;11.854;2023-03-01T04:58:35;-5.00;99.90
46730;DHT22;32476;50.002;11.854;2023-03-01T05:01:01;-5.00;99.90
46730;DHT22;32476;50.002;11.854;2023-03-01T05:03:44;-4.90;99.90
46730;DHT22;32476;50.002;11.854;2023-03-01T05:06:11;-4.70;99.90
46730;DHT22;32476;50.002;11.854;2023-03-01T05:08:38;-4.80;99.90
46730;DHT22;32476;50.002;11.854;2023-03-01T05:11:07;-4.70;99.90
46730;DHT22;32476;50.002;11.854;2023-03-01T05:13:38;-4.70;99.90
46730;DHT22;32476;50.002;11.854;2023-03-01T05:16:05;-4.70;99.90
46730;DHT22;32476;50.002;11.854;2023-03-01T05:18:38;-4.70;99.90
46730;DHT22;32476;50.002;11.854;2023-03-01T05:21:08;-4.80;99.90
46730;DHT22;32476;50.002;11.854;2023-03-01T05:23:36;-4.90;99.90
46730;DHT22;32476;50.002;11.854;2023-03-01T05:26:05;-4.90;99.90
46730;DHT22;32476;50.002;11.854;2023-03-01T05:28:31;-4.90;99.90
46730;DHT22;32476;50.002;11.854;2023-03-01T05:30:58;-4.90;99.90
46730;DHT22;32476;50.002;11.854;2023-03-01T05:33:26;-5.10;99.90
46730;DHT22;32476;50.002;11.854;2023-03-01T05:35:52;-5.00;99.90
46730;DHT22;32476;50.002;11.854;2023-03-01T05:38:19;-5.10;99.90
46730;DHT22;32476;50.002;11.854;2023-03-01T05:40:48;-5.20;99.90
46730;DHT22;32476;50.002;11.854;2023-03-01T05:43:16;-5.10;99.90
46730;DHT22;32476;50.002;11.854;2023-03-01T05:45:43;-5.10;99.90
46730;DHT22;32476;50.002;11.854;2023-03-01T05:48:12;-4.90;99.90
46730;DHT22;32476;50.002;11.854;2023-03-01T05:50:41;-5.00;99.90
46730;DHT22;32476;50.002;11.854;2023-03-01T05:53:17;-5.10;99.90
46730;DHT22;32476;50.002;11.854;2023-03-01T05:55:48;-5.10;99.90
46730;DHT22;32476;50.002;11.854;2023-03-01T05:58:17;-5.10;99.90
46730;DHT22;32476;50.002;11.854;2023-03-01T06:00:46;-5.10;99.90
46730;DHT22;32476;50.002;11.854;2023-03-01T06:03:16;-5.20;99.90
46730;DHT22;32476;50.002;11.854;2023-03-01T06:05:43;-5.10;99.90
46730;DHT22;32476;50.002;11.854;2023-03-01T06:08:10;-5.20;99.90
46730;DHT22;32476;50.002;11.854;2023-03-01T06:10:38;-5.20;99.90
46730;DHT22;32476;50.002;11.854;2023-03-01T06:13:04;-5.20;99.90
46730;DHT22;32476;50.002;11.854;2023-03-01T06:15:30;-5.20;99.90
46730;DHT22;32476;50.002;11.854;2023-03-01T06:17:58;-5.20;99.90
46730;DHT22;32476;50.002;11.854;2023-03-01T06:20:25;-5.10;99.90
46730;DHT22;32476;50.002;11.854;2023-03-01T06:22:53;-5.10;99.90
46730;DHT22;32476;50.002;11.854;2023-03-01T06:25:22;-5.00;99.90
46730;DHT22;32476;50.002;11.854;2023-03-01T06:27:50;-4.90;99.90
46730;DHT22;32476;50.002;11.854;2023-03-01T06:30:19;-4.90;99.90
46730;DHT22;32476;50.002;11.854;2023-03-01T06:32:48;-4.90;99.90
46730;DHT22;32476;50.002;11.854;2023-03-01T06:35:16;-4.90;99.90
46730;DHT22;32476;50.002;11.854;2023-03-01T06:37:44;-4.90;99.90
46730;DHT22;32476;50.002;11.854;2023-03-01T06:40:13;-4.90;99.90
46730;DHT22;32476;50.002;11.854;2023-03-01T06:42:41;-4.80;99.90
46730;DHT22;32476;50.002;11.854;2023-03-01T06:45:09;-4.80;99.90
46730;DHT22;32476;50.002;11.854;2023-03-01T06:47:37;-4.70;99.90
46730;DHT22;32476;50.002;11.854;2023-03-01T06:50:04;-4.70;99.90
46730;DHT22;32476;50.002;11.854;2023-03-01T06:52:30;-4.70;99.90
46730;DHT22;32476;50.002;11.854;2023-03-01T06:54:58;-4.60;99.90
46730;DHT22;32476;50.002;11.854;2023-03-01T06:57:24;-4.50;99.90
46730;DHT22;32476;50.002;11.854;2023-03-01T06:59:50;-4.50;99.90
46730;DHT22;32476;50.002;11.854;2023-03-01T07:02:18;-4.50;99.90
46730;DHT22;32476;50.002;11.854;2023-03-01T07:04:44;-4.50;99.90
46730;DHT22;32476;50.002;11.854;2023-03-01T07:07:11;-4.40;99.90
46730;DHT22;32476;50.002;11.854;2023-03-01T07:09:39;-4.40;99.90
46730;DHT22;32476;50.002;11.854;2023-03-01T07:12:05;-4.30;99.90
46730;DHT22;32476;50.002;11.854;2023-03-01T07:14:31;-4.30;99.90
46730;DHT22;32476;50.002;11.854;2023-03-01T07:16:59;-4.10;99.90
46730;DHT22;32476;50.002;11.854;2023-03-01T07:19:25;-4.00;99.90
46730;DHT22;32476;50.002;11.854;2023-03-01T07:21:51;-3.90;99.90
46730;DHT22;32476;50.002;11.854;2023-03-01T07:24:18;-3.90;99.90
46730;DHT22;32476;50.002;11.854;2023-03-01T07:26:48;-3.80;99.90
46730;DHT22;32476;50.002;11.854;2023-03-01T07:29:19;-3.70;99.90
46730;DHT22;32476;50.002;11.854;2023-03-01T07:31:45;-3.70;99.90
46730;DHT22;32476;50.002;11.854;2023-03-01T07:34:11;-3.50;99.90
46730;DHT22;32476;50.002;11.854;2023-03-01T07:36:38;-3.50;99.90
46730;DHT22;32476;50.002;11.854;2023-03-01T07:39:07;-3.50;99.90
46730;DHT22;32476;50.002;11.854;2023-03-01T07:41:34;-3.40;99.90
46730;DHT22;32476;50.002;11.854;2023-03-01T07:44:01;-3.30;99.90
46730;DHT22;32476;50.002;11.854;2023-03-01T07:46:27;-3.20;99.90
46730;DHT22;32476;50.002;11.854;2023-03-01T07:48:53;-3.20;99.90
46730;DHT22;32476;50.002;11.854;2023-03-01T07:51:21;-3.10;99.90
46730;DHT22;32476;50.002;11.854;2023-03-01T07:53:47;-3.00;99.90
46730;DHT22;32476;50.002;11.854;2023-03-01T07:56:15;-3.00;99.90
46730;DHT22;32476;50.002;11.854;2023-03-01T07:58:48;-2.90;99.90
46730;DHT22;32476;50.002;11.854;2023-03-01T08:01:16;-2.70;99.90
46730;DHT22;32476;50.002;11.854;2023-03-01T08:03:44;-2.70;99.90
46730;DHT22;32476;50.002;11.854;2023-03-01T08:06:13;-2.60;99.90
46730;DHT22;32476;50.002;11.854;2023-03-01T08:08:40;-2.50;99.90
46730;DHT22;32476;50.002;11.854;2023-03-01T08:11:07;-2.40;99.90
46730;DHT22;32476;50.002;11.854;2023-03-01T08:13:36;-2.30;99.90
46730;DHT22;32476;50.002;11.854;2023-03-01T08:16:07;-2.20;99.90
46730;DHT22;32476;50.002;11.854;2023-03-01T08:18:37;-2.10;99.90
46730;DHT22;32476;50.002;11.854;2023-03-01T08:21:08;-1.90;99.90
46730;DHT22;32476;50.002;11.854;2023-03-01T08:23:37;-1.90;99.90
46730;DHT22;32476;50.002;11.854;2023-03-01T08:26:17;-1.90;99.90
46730;DHT22;32476;50.002;11.854;2023-03-01T08:28:47;-1.90;99.90
46730;DHT22;32476;50.002;11.854;2023-03-01T08:31:25;-1.80;99.90
46730;DHT22;32476;50.002;11.854;2023-03-01T08:33:57;-1.80;99.90
46730;DHT22;32476;50.002;11.854;2023-03-01T08:36:30;-1.60;99.90
46730;DHT22;32476;50.002;11.854;2023-03-01T08:39:00;-1.50;99.90
46730;DHT22;32476;50.002;11.854;2023-03-01T08:41:26;-1.40;99.90
46730;DHT22;32476;50.002;11.854;2023-03-01T08:43:54;-1.20;99.90
46730;DHT22;32476;50.002;11.854;2023-03-01T08:46:39;-1.20;99.90
46730;DHT22;32476;50.002;11.854;2023-03-01T08:49:16;-1.10;99.90
46730;DHT22;32476;50.002;11.854;2023-03-01T08:51:46;-1.10;99.90
46730;DHT22;32476;50.002;11.854;2023-03-01T08:54:14;-0.90;99.90
46730;DHT22;32476;50.002;11.854;2023-03-01T08:56:46;-0.80;99.90
46730;DHT22;32476;50.002;11.854;2023-03-01T08:59:14;-0.60;99.90
46730;DHT22;32476;50.002;11.854;2023-03-01T09:01:41;-0.80;99.90
46730;DHT22;32476;50.002;11.854;2023-03-01T09:04:12;-0.90;99.90
46730;DHT22;32476;50.002;11.854;2023-03-01T09:06:38;-0.60;99.90
46730;DHT22;32476;50.002;11.854;2023-03-01T09:09:05;-0.70;99.90
46730;DHT22;32476;50.002;11.854;2023-03-01T09:11:33;-0.30;99.90
46730;DHT22;32476;50.002;11.854;2023-03-01T09:13:59;-0.20;99.90
46730;DHT22;32476;50.002;11.854;2023-03-01T09:16:25;-0.20;99.90
46730;DHT22;32476;50.002;11.854;2023-03-01T09:18:54;0.00;99.90
46730;DHT22;32476;50.002;11.854;2023-03-01T09:21:21;0.20;99.90
46730;DHT22;32476;50.002;11.854;2023-03-01T09:23:48;0.60;99.90
46730;DHT22;32476;50.002;11.854;2023-03-01T09:26:19;0.50;99.90
46730;DHT22;32476;50.002;11.854;2023-03-01T09:28:48;0.60;99.90
46730;DHT22;32476;50.002;11.854;2023-03-01T09:31:19;0.50;99.90
46730;DHT22;32476;50.002;11.854;2023-03-01T09:33:48;0.80;99.90
46730;DHT22;32476;50.002;11.854;2023-03-01T09:36:20;0.60;99.90
46730;DHT22;32476;50.002;11.854;2023-03-01T09:38:49;0.70;99.90
46730;DHT22;32476;50.002;11.854;2023-03-01T09:44:27;0.60;99.90
46730;DHT22;32476;50.002;11.854;2023-03-01T09:46:57;0.80;99.90
46730;DHT22;32476;50.002;11.854;2023-03-01T09:49:28;0.90;99.90
46730;DHT22;32476;50.002;11.854;2023-03-01T09:52:21;1.20;99.90
46730;DHT22;32476;50.002;11.854;2023-03-01T09:54:55;1.10;99.90
46730;DHT22;32476;50.002;11.854;2023-03-01T09:57:30;1.60;99.90
46730;DHT22;32476;50.002;11.854;2023-03-01T10:03:08;1.80;99.90
46730;DHT22;32476;50.002;11.854;2023-03-01T10:05:56;1.70;99.90
46730;DHT22;32476;50.002;11.854;2023-03-01T10:08:38;2.20;99.90
46730;DHT22;32476;50.002;11.854;2023-03-01T10:16:41;1.70;99.90
46730;DHT22;32476;50.002;11.854;2023-03-01T10:19:20;2.00;99.90
46730;DHT22;32476;50.002;11.854;2023-03-01T10:21:51;2.20;99.90
46730;DHT22;32476;50.002;11.854;2023-03-01T10:24:19;2.40;99.90
46730;DHT22;32476;50.002;11.854;2023-03-01T10:26:55;2.40;99.90
46730;DHT22;32476;50.002;11.854;2023-03-01T10:29:39;2.40;99.90
46730;DHT22;32476;50.002;11.854;2023-03-01T10:32:28;1.80;99.90
46730;DHT22;32476;50.002;11.854;2023-03-01T10:34:56;2.10;99.90
46730;DHT22;32476;50.002;11.854;2023-03-01T10:37:22;2.50;99.90
46730;DHT22;32476;50.002;11.854;2023-03-01T10:39:57;2.90;99.90
46730;DHT22;32476;50.002;11.854;2023-03-01T10:42:32;3.00;99.90
46730;DHT22;32476;50.002;11.854;2023-03-01T10:45:26;2.90;99.90
46730;DHT22;32476;50.002;11.854;2023-03-01T10:48:18;2.50;99.90
46730;DHT22;32476;50.002;11.854;2023-03-01T10:50:48;3.10;99.90
46730;DHT22;32476;50.002;11.854;2023-03-01T10:53:41;3.10;99.90
46730;DHT22;32476;50.002;11.854;2023-03-01T10:56:12;3.10;99.90
46730;DHT22;32476;50.002;11.854;2023-03-01T10:59:04;3.00;99.90
46730;DHT22;32476;50.002;11.854;2023-03-01T11:01:33;3.00;99.90
46730;DHT22;32476;50.002;11.854;2023-03-01T11:06:34;2.60;99.90
46730;DHT22;32476;50.002;11.854;2023-03-01T11:11:42;3.00;99.90
46730;DHT22;32476;50.002;11.854;2023-03-01T11:14:16;3.00;99.90
46730;DHT22;32476;50.002;11.854;2023-03-01T11:16:47;3.30;99.90
46730;DHT22;32476;50.002;11.854;2023-03-01T11:19:17;3.30;99.90
46730;DHT22;32476;50.002;11.854;2023-03-01T11:21:57;3.80;99.90
46730;DHT22;32476;50.002;11.854;2023-03-01T11:24:40;3.30;99.80
46730;DHT22;32476;50.002;11.854;2023-03-01T11:27:26;3.30;99.90
46730;DHT22;32476;50.002;11.854;2023-03-01T11:30:20;3.60;99.90
46730;DHT22;32476;50.002;11.854;2023-03-01T11:35:42;3.60;99.90
46730;DHT22;32476;50.002;11.854;2023-03-01T11:38:28;3.20;99.90
46730;DHT22;32476;50.002;11.854;2023-03-01T11:41:02;3.40;99.90
46730;DHT22;32476;50.002;11.854;2023-03-01T11:44:00;3.40;99.90
46730;DHT22;32476;50.002;11.854;2023-03-01T11:49:44;3.90;99.90
46730;DHT22;32476;50.002;11.854;2023-03-01T11:52:21;3.90;99.10
46730;DHT22;32476;50.002;11.854;2023-03-01T11:55:19;3.70;97.30
46730;DHT22;32476;50.002;11.854;2023-03-01T11:58:14;3.30;98.50
46730;DHT22;32476;50.002;11.854;2023-03-01T12:01:03;3.30;99.50
46730;DHT22;32476;50.002;11.854;2023-03-01T12:07:00;3.70;99.90
46730;DHT22;32476;50.002;11.854;2023-03-01T12:22:02;4.20;99.00
46730;DHT22;32476;50.002;11.854;2023-03-01T12:30:51;4.50;97.90
46730;DHT22;32476;50.002;11.854;2023-03-01T12:33:33;4.80;97.70
46730;DHT22;32476;50.002;11.854;2023-03-01T12:39:12;5.20;95.70
46730;DHT22;32476;50.002;11.854;2023-03-01T12:51:11;5.70;95.00
46730;DHT22;32476;50.002;11.854;2023-03-01T12:53:46;5.10;93.00
46730;DHT22;32476;50.002;11.854;2023-03-01T12:56:29;4.70;95.50
46730;DHT22;32476;50.002;11.854;2023-03-01T12:59:31;5.50;96.70
46730;DHT22;32476;50.002;11.854;2023-03-01T13:05:21;5.30;94.30
46730;DHT22;32476;50.002;11.854;2023-03-01T13:11:01;5.00;93.50
46730;DHT22;32476;50.002;11.854;2023-03-01T13:13:29;4.90;93.40
46730;DHT22;32476;50.002;11.854;2023-03-01T13:15:57;5.20;94.10
46730;DHT22;32476;50.002;11.854;2023-03-01T13:19:22;5.80;94.40
46730;DHT22;32476;50.002;11.854;2023-03-01T13:21:53;5.90;94.20
46730;DHT22;32476;50.002;11.854;2023-03-01T13:24:29;6.10;91.90
46730;DHT22;32476;50.002;11.854;2023-03-01T13:32:32;5.80;94.00
46730;DHT22;32476;50.002;11.854;2023-03-01T13:37:50;5.60;92.30
46730;DHT22;32476;50.002;11.854;2023-03-01T13:42:52;5.70;92.80
46730;DHT22;32476;50.002;11.854;2023-03-01T13:45:36;5.70;92.90
46730;DHT22;32476;50.002;11.854;2023-03-01T13:48:28;5.70;93.50
46730;DHT22;32476;50.002;11.854;2023-03-01T13:51:20;5.70;92.70
46730;DHT22;32476;50.002;11.854;2023-03-01T13:53:48;5.80;93.20
46730;DHT22;32476;50.002;11.854;2023-03-01T13:56:20;5.50;92.80
46730;DHT22;32476;50.002;11.854;2023-03-01T13:58:50;5.80;93.70
46730;DHT22;32476;50.002;11.854;2023-03-01T14:01:26;5.60;93.60
46730;DHT22;32476;50.002;11.854;2023-03-01T14:03:57;5.90;92.70
46730;DHT22;32476;50.002;11.854;2023-03-01T14:06:27;5.20;93.70
46730;DHT22;32476;50.002;11.854;2023-03-01T14:09:26;5.00;93.60
46730;DHT22;32476;50.002;11.854;2023-03-01T14:14:51;5.60;94.50
46730;DHT22;32476;50.002;11.854;2023-03-01T14:20:27;5.40;93.50
46730;DHT22;32476;50.002;11.854;2023-03-01T14:22:59;6.00;93.70
46730;DHT22;32476;50.002;11.854;2023-03-01T14:25:32;5.70;94.50
46730;DHT22;32476;50.002;11.854;2023-03-01T14:28:17;6.20;94.30
46730;DHT22;32476;50.002;11.854;2023-03-01T14:30:49;5.90;93.40
46730;DHT22;32476;50.002;11.854;2023-03-01T14:33:24;5.70;95.20
46730;DHT22;32476;50.002;11.854;2023-03-01T14:35:58;5.70;94.40
46730;DHT22;32476;50.002;11.854;2023-03-01T14:38:41;5.80;93.80
46730;DHT22;32476;50.002;11.854;2023-03-01T14:41:14;5.70;94.50
46730;DHT22;32476;50.002;11.854;2023-03-01T14:43:50;5.30;95.00
46730;DHT22;32476;50.002;11.854;2023-03-01T14:49:19;5.30;95.70
46730;DHT22;32476;50.002;11.854;2023-03-01T14:51:54;5.30;94.80
46730;DHT22;32476;50.002;11.854;2023-03-01T14:54:40;5.10;95.00
46730;DHT22;32476;50.002;11.854;2023-03-01T14:57:25;5.20;96.10
46730;DHT22;32476;50.002;11.854;2023-03-01T14:59:55;5.00;96.40
46730;DHT22;32476;50.002;11.854;2023-03-01T15:02:25;5.00;96.30
46730;DHT22;32476;50.002;11.854;2023-03-01T15:04:59;5.00;96.10
46730;DHT22;32476;50.002;11.854;2023-03-01T15:07:30;4.80;97.00
46730;DHT22;32476;50.002;11.854;2023-03-01T15:10:02;4.90;96.40
46730;DHT22;32476;50.002;11.854;2023-03-01T15:12:34;5.10;97.00
46730;DHT22;32476;50.002;11.854;2023-03-01T15:17:55;5.00;96.10
46730;DHT22;32476;50.002;11.854;2023-03-01T15:20:26;5.00;96.70
46730;DHT22;32476;50.002;11.854;2023-03-01T15:22:55;5.00;98.20
46730;DHT22;32476;50.002;11.854;2023-03-01T15:25:24;4.70;96.00
46730;DHT22;32476;50.002;11.854;2023-03-01T15:27:55;4.70;97.20
46730;DHT22;32476;50.002;11.854;2023-03-01T15:30:30;4.70;97.50
46730;DHT22;32476;50.002;11.854;2023-03-01T15:33:29;4.70;96.90
46730;DHT22;32476;50.002;11.854;2023-03-01T15:39:04;4.70;97.00
46730;DHT22;32476;50.002;11.854;2023-03-01T15:41:38;4.50;97.60
46730;DHT22;32476;50.002;11.854;2023-03-01T15:44:16;4.40;98.40
46730;DHT22;32476;50.002;11.854;2023-03-01T15:46:46;4.50;98.60
46730;DHT22;32476;50.002;11.854;2023-03-01T15:49:42;4.50;98.90
46730;DHT22;32476;50.002;11.854;2023-03-01T15:52:25;4.60;99.70
46730;DHT22;32476;50.002;11.854;2023-03-01T15:55:04;4.60;99.30
46730;DHT22;32476;50.002;11.854;2023-03-01T15:57:32;4.20;98.90
46730;DHT22;32476;50.002;11.854;2023-03-01T16:00:00;4.10;99.90
46730;DHT22;32476;50.002;11.854;2023-03-01T16:02:26;4.20;99.90
46730;DHT22;32476;50.002;11.854;2023-03-01T16:04:52;4.20;99.90
46730;DHT22;32476;50.002;11.854;2023-03-01T16:07:20;4.00;99.90
46730;DHT22;32476;50.002;11.854;2023-03-01T16:09:46;4.10;99.90
46730;DHT22;32476;50.002;11.854;2023-03-01T16:12:15;4.10;99.90
46730;DHT22;32476;50.002;11.854;2023-03-01T16:14:43;4.10;99.90
46730;DHT22;32476;50.002;11.854;2023-03-01T16:17:09;3.90;99.90
46730;DHT22;32476;50.002;11.854;2023-03-01T16:19:40;3.80;99.90
46730;DHT22;32476;50.002;11.854;2023-03-01T16:22:10;3.70;99.90
46730;DHT22;32476;50.002;11.854;2023-03-01T16:24:37;3.50;99.90
46730;DHT22;32476;50.002;11.854;2023-03-01T16:27:03;3.40;99.90
46730;DHT22;32476;50.002;11.854;2023-03-01T16:29:30;3.20;99.90
46730;DHT22;32476;50.002;11.854;2023-03-01T16:32:00;3.20;99.90
46730;DHT22;32476;50.002;11.854;2023-03-01T16:34:26;3.20;99.90
46730;DHT22;32476;50.002;11.854;2023-03-01T16:36:54;3.00;99.90
46730;DHT22;32476;50.002;11.854;2023-03-01T16:39:20;2.80;99.90
46730;DHT22;32476;50.002;11.854;2023-03-01T16:41:46;2.60;99.90
46730;DHT22;32476;50.002;11.854;2023-03-01T16:44:14;2.50;99.90
46730;DHT22;32476;50.002;11.854;2023-03-01T16:46:41;2.30;99.90
46730;DHT22;32476;50.002;11.854;2023-03-01T16:49:09;2.10;99.90
46730;DHT22;32476;50.002;11.854;2023-03-01T16:51:36;2.00;99.90
46730;DHT22;32476;50.002;11.854;2023-03-01T16:54:02;1.90;99.90
46730;DHT22;32476;50.002;11.854;2023-03-01T16:56:30;1.80;99.90
46730;DHT22;32476;50.002;11.854;2023-03-01T16:58:59;1.70;99.90
46730;DHT22;32476;50.002;11.854;2023-03-01T17:01:25;1.70;99.90
46730;DHT22;32476;50.002;11.854;2023-03-01T17:03:52;1.60;99.90
46730;DHT22;32476;50.002;11.854;2023-03-01T17:06:20;1.60;99.90
46730;DHT22;32476;50.002;11.854;2023-03-01T17:08:47;1.50;99.90
46730;DHT22;32476;50.002;11.854;2023-03-01T17:11:16;1.40;99.90
46730;DHT22;32476;50.002;11.854;2023-03-01T17:13:45;1.30;99.90
46730;DHT22;32476;50.002;11.854;2023-03-01T17:16:14;1.30;99.90
46730;DHT22;32476;50.002;11.854;2023-03-01T17:18:42;1.30;99.90
46730;DHT22;32476;50.002;11.854;2023-03-01T17:21:10;1.20;99.90
46730;DHT22;32476;50.002;11.854;2023-03-01T17:23:38;1.20;99.90
46730;DHT22;32476;50.002;11.854;2023-03-01T17:26:06;1.10;99.90
46730;DHT22;32476;50.002;11.854;2023-03-01T17:28:35;1.10;99.90
46730;DHT22;32476;50.002;11.854;2023-03-01T17:31:03;1.00;99.90